Terminal Aerodrome Forecast
Issued by NWS Atlanta, GA

Home | Current Version | Previous Version | Text Only | Print | Product List | Glossary On
Versions: 1 2 3 4 5 6 7 8 9 10 11 12 13 14 15 16 17 18 19 20 21 22 23 24 25 26 27 28 29 30 31 32 33
000
FTUS42 KFFC 190206 AAA
TAFAHN
TAF AMD
KAHN 190206Z 1902/1924 30004KT P6SM SCT120 BKN250
     FM191600 05004KT P6SM BKN150
     FM192000 01004KT P6SM OVC120=

USA.gov is the U.S. government's official web portal to all federal, state and local government web resources and services.